createdAt,value
2023-04-15T00:03:19.304Z,7.62
2023-04-15T00:08:27.153Z,7.62
2023-04-15T00:13:35.621Z,7.91
2023-04-15T00:18:45.366Z,7.91
2023-04-15T00:23:54.491Z,7.84
2023-04-15T00:29:04.252Z,7.84
2023-04-15T00:34:13.361Z,7.78
2023-04-15T00:39:23.223Z,7.78
2023-04-15T00:44:31.614Z,7.71
2023-04-15T00:49:40.688Z,7.71
2023-04-15T00:54:49.861Z,7.8
2023-04-15T00:59:58.971Z,7.8
2023-04-15T01:05:09.390Z,7.84
2023-04-15T01:10:19.118Z,7.84
2023-04-15T01:15:28.908Z,7.76
2023-04-15T01:20:38.685Z,7.76
2023-04-15T01:25:48.386Z,7.86
2023-04-15T01:30:58.153Z,7.86
2023-04-15T01:36:07.280Z,7.74
2023-04-15T01:41:17.691Z,7.74
2023-04-15T01:46:27.091Z,7.79
2023-04-15T01:51:35.366Z,7.79
2023-04-15T01:56:45.061Z,7.89
2023-04-15T02:01:55.603Z,7.89
2023-04-15T02:07:03.927Z,7.81
2023-04-15T02:12:13.050Z,7.81
2023-04-15T02:17:23.065Z,7.89
2023-04-15T02:22:32.576Z,7.89
2023-04-15T02:27:41.702Z,8.14
2023-04-15T02:32:51.121Z,8.07
2023-04-15T02:38:01.222Z,8.07
2023-04-15T02:43:10.353Z,7.92
2023-04-15T02:48:18.803Z,7.92
2023-04-15T02:53:28.552Z,7.97
2023-04-15T03:14:05.063Z,7.9
2023-04-15T04:05:38.290Z,7.94
2023-04-15T04:10:46.647Z,7.94
2023-04-15T04:15:55.950Z,7.73
2023-04-15T04:21:04.883Z,7.73
2023-04-15T04:26:13.449Z,7.95
2023-04-15T04:31:23.363Z,7.95
2023-04-15T04:36:31.620Z,7.79
2023-04-15T04:41:41.340Z,7.79
2023-04-15T04:46:51.799Z,8.15
2023-04-15T04:52:01.866Z,8.15
2023-04-15T04:57:10.027Z,7.94
2023-04-15T05:02:19.242Z,7.94
2023-04-15T05:07:28.237Z,8.13
2023-04-15T05:12:36.712Z,8.13
2023-04-15T05:17:46.829Z,7.87
2023-04-15T05:22:54.334Z,7.87
2023-04-15T05:28:02.817Z,8.05
2023-04-15T05:33:12.575Z,7.92
2023-04-15T05:38:21.040Z,7.92
2023-04-15T05:43:29.511Z,7.91
2023-04-15T05:48:37.365Z,7.91
2023-04-15T05:53:46.502Z,8.16
2023-04-15T05:58:56.247Z,8.16
2023-04-15T06:04:05.424Z,8.08
2023-04-15T06:09:14.488Z,8.08
2023-04-15T06:14:23.001Z,8.27
2023-04-15T06:19:32.718Z,8.27
2023-04-15T06:24:41.220Z,8.52
2023-04-15T06:29:50.962Z,8.52
2023-04-15T06:35:00.067Z,8.42
2023-04-15T06:40:09.840Z,8.42
2023-04-15T06:45:20.240Z,8.37
2023-04-15T06:50:30.029Z,8.37
2023-04-15T06:55:38.479Z,8.59
2023-04-15T07:47:11.670Z,8.37
2023-04-15T07:52:20.094Z,8.37
2023-04-15T07:57:29.873Z,8.11
2023-04-15T08:02:41.889Z,8.11
2023-04-15T08:07:47.468Z,8.28
2023-04-15T08:12:57.359Z,8.28
2023-04-15T08:18:06.314Z,8.31
2023-04-15T08:23:15.506Z,8.31
2023-04-15T08:28:25.261Z,8.22
2023-04-15T08:33:35.037Z,8.22
2023-04-15T08:38:44.067Z,8.02
2023-04-15T08:43:52.523Z,8
2023-04-15T08:49:03.532Z,8
2023-04-15T08:54:10.840Z,7.95
2023-04-15T08:59:20.576Z,7.95
2023-04-15T09:04:29.061Z,7.88
2023-04-15T09:09:38.168Z,7.88
2023-04-15T09:14:47.298Z,7.95
2023-04-15T09:19:55.812Z,7.95
2023-04-15T09:25:05.636Z,8.02
2023-04-15T09:30:15.297Z,8.02
2023-04-15T09:35:24.410Z,7.91
2023-04-15T09:40:35.474Z,7.91
2023-04-15T09:45:44.283Z,7.96
2023-04-15T09:50:53.025Z,7.96
2023-04-15T09:56:02.219Z,8.08
2023-04-15T10:01:10.839Z,8.08
2023-04-15T10:06:19.766Z,7.9
2023-04-15T10:11:32.064Z,7.9
2023-04-15T10:16:37.999Z,8.09
2023-04-15T10:21:46.504Z,8.09
2023-04-15T10:26:56.220Z,7.94
2023-04-15T10:32:06.036Z,7.94
2023-04-15T10:37:15.122Z,7.85
2023-04-15T10:42:23.586Z,7.85
2023-04-15T11:23:34.825Z,7.72
2023-04-15T11:28:43.369Z,7.73
2023-04-15T11:33:53.005Z,7.73
2023-04-15T11:39:02.010Z,7.83
2023-04-15T11:44:11.775Z,7.83
2023-04-15T11:49:21.553Z,7.78
2023-04-15T11:54:30.619Z,7.79
2023-04-15T11:59:46.551Z,7.79
2023-04-15T12:04:50.796Z,7.77
2023-04-15T12:09:58.633Z,7.77
2023-04-15T12:15:07.134Z,7.8
2023-04-15T13:09:08.200Z,7.78
2023-04-15T13:14:17.833Z,7.78
2023-04-15T13:19:27.132Z,7.81
2023-04-15T13:24:35.444Z,7.69
2023-04-15T13:29:45.835Z,7.69
2023-04-15T13:34:53.717Z,7.62
2023-04-15T13:40:02.265Z,7.62
2023-04-15T13:45:11.289Z,7.7
2023-04-15T13:50:20.406Z,7.7
2023-04-15T13:55:30.169Z,7.66
2023-04-15T14:00:38.683Z,7.66
2023-04-15T14:05:46.486Z,7.65
2023-04-15T14:10:54.955Z,7.65
2023-04-15T14:16:03.496Z,7.61
2023-04-15T14:21:12.675Z,7.61
2023-04-15T14:26:21.045Z,7.59
2023-04-15T14:31:29.510Z,7.59
2023-04-15T14:36:38.049Z,7.57
2023-04-15T14:41:47.771Z,7.57
2023-04-15T14:46:56.282Z,7.57
2023-04-15T14:52:05.361Z,7.57
2023-04-15T14:57:14.520Z,7.51
2023-04-15T15:02:40.990Z,7.51
2023-04-15T15:07:33.379Z,7.65
2023-04-15T15:12:43.113Z,7.65
2023-04-15T15:17:52.004Z,7.49
2023-04-15T15:23:00.072Z,7.49
2023-04-15T15:28:09.849Z,7.49
2023-04-15T15:33:18.979Z,7.49
2023-04-15T15:38:27.462Z,7.73
2023-04-15T15:43:37.191Z,7.73
2023-04-15T15:48:47.630Z,7.68
2023-04-15T15:53:56.062Z,7.68
2023-04-15T15:59:07.320Z,7.57
2023-04-15T16:50:37.816Z,7.65
2023-04-15T16:55:46.216Z,7.58
2023-04-15T17:00:55.410Z,7.58
2023-04-15T17:06:03.819Z,7.54
2023-04-15T17:11:12.902Z,7.54
2023-04-15T17:16:23.052Z,7.55
2023-04-15T17:21:31.105Z,7.55
2023-04-15T17:26:39.594Z,7.57
2023-04-15T17:31:49.382Z,7.57
2023-04-15T17:36:57.870Z,7.69
2023-04-15T17:42:06.325Z,7.69
2023-04-15T17:47:15.440Z,7.69
2023-04-15T17:52:25.199Z,7.69
2023-04-15T17:57:34.319Z,7.65
2023-04-15T18:02:44.948Z,7.65
2023-04-15T18:07:53.229Z,7.72
2023-04-15T18:13:02.956Z,7.72
2023-04-15T18:18:12.733Z,7.65
2023-04-15T18:23:21.847Z,7.65
2023-04-15T18:28:30.967Z,7.71
2023-04-15T18:33:40.093Z,7.71
2023-04-15T18:38:49.833Z,7.79
2023-04-15T18:43:58.341Z,7.79
2023-04-15T18:49:08.418Z,7.86
2023-04-15T18:54:16.595Z,7.86
2023-04-15T18:59:31.245Z,7.81
2023-04-15T19:04:33.915Z,7.81
2023-04-15T19:09:42.076Z,7.6
2023-04-15T19:14:51.773Z,7.6
2023-04-15T19:20:01.591Z,7.77
2023-04-15T19:25:10.027Z,7.77
2023-04-15T19:30:18.504Z,7.66
2023-04-15T19:35:26.978Z,7.66
2023-04-15T19:40:36.721Z,7.78
2023-04-15T19:45:46.111Z,7.84
2023-04-15T20:32:06.759Z,7.68
2023-04-15T20:37:16.409Z,7.85
2023-04-15T20:42:26.792Z,7.85
2023-04-15T20:47:35.426Z,7.62
2023-04-15T20:52:43.755Z,7.62
2023-04-15T20:57:54.152Z,7.9
2023-04-15T21:03:05.991Z,7.9
2023-04-15T21:08:13.064Z,7.89
2023-04-15T21:13:22.164Z,7.89
2023-04-15T21:18:31.316Z,7.91
2023-04-15T21:23:41.057Z,7.91
2023-04-15T21:28:50.181Z,7.98
2023-04-15T21:33:58.626Z,7.98
2023-04-15T21:39:08.568Z,7.87
2023-04-15T21:44:16.911Z,7.87
2023-04-15T21:49:25.801Z,8.15
2023-04-15T21:54:34.466Z,8.15
2023-04-15T21:59:44.263Z,8.24
2023-04-15T22:04:52.729Z,8.24
2023-04-15T22:10:02.596Z,8
2023-04-15T22:15:12.287Z,8
2023-04-15T22:20:21.349Z,7.98
2023-04-15T22:25:29.857Z,7.98
2023-04-15T22:30:38.927Z,8.09
2023-04-15T22:35:47.448Z,8.09
2023-04-15T22:40:56.567Z,8.11
2023-04-15T22:46:05.884Z,8.11
2023-04-15T22:51:14.789Z,8.34
2023-04-15T22:56:23.919Z,8.42
2023-04-15T23:01:33.258Z,8.42
2023-04-15T23:06:42.160Z,8.33
2023-04-15T23:11:51.298Z,8.33
2023-04-15T23:17:00.363Z,8.63
2023-04-15T23:22:09.535Z,8.63
2023-04-15T23:27:17.994Z,8.37
